sensor_id;sensor_type;location;lat;lon;timestamp;pressure;altitude;pressure_sealevel;temperature;humidity
23341;BME280;12239;53.404;23.492;2023-10-31T00:02:15;76696.39;;;-147.78;100.00
23341;BME280;12239;53.404;23.492;2023-10-31T00:05:05;76692.29;;;-147.78;100.00
23341;BME280;12239;53.404;23.492;2023-10-31T00:07:55;76689.01;;;-147.78;100.00
23341;BME280;12239;53.404;23.492;2023-10-31T00:10:44;76683.27;;;-147.78;100.00
23341;BME280;12239;53.404;23.492;2023-10-31T00:13:34;76679.98;;;-147.78;100.00
23341;BME280;12239;53.404;23.492;2023-10-31T00:16:24;76677.52;;;-147.78;100.00
23341;BME280;12239;53.404;23.492;2023-10-31T00:19:14;76676.30;;;-147.78;100.00
23341;BME280;12239;53.404;23.492;2023-10-31T00:22:03;76672.61;;;-147.78;100.00
23341;BME280;12239;53.404;23.492;2023-10-31T00:24:53;76665.64;;;-147.78;100.00
23341;BME280;12239;53.404;23.492;2023-10-31T00:27:46;76662.35;;;-147.78;100.00
23341;BME280;12239;53.404;23.492;2023-10-31T00:30:18;76658.25;;;-147.78;100.00
23341;BME280;12239;53.404;23.492;2023-10-31T00:33:08;76648.82;;;-147.78;100.00
23341;BME280;12239;53.404;23.492;2023-10-31T00:35:57;76643.09;;;-147.78;100.00
23341;BME280;12239;53.404;23.492;2023-10-31T00:38:47;76642.27;;;-147.78;100.00
23341;BME280;12239;53.404;23.492;2023-10-31T00:41:37;76637.75;;;-147.78;100.00
23341;BME280;12239;53.404;23.492;2023-10-31T00:47:01;76632.84;;;-147.78;100.00
23341;BME280;12239;53.404;23.492;2023-10-31T00:49:53;76629.15;;;-147.78;100.00
23341;BME280;12239;53.404;23.492;2023-10-31T00:52:42;76626.68;;;-147.78;100.00
23341;BME280;12239;53.404;23.492;2023-10-31T00:55:32;76622.99;;;-147.78;100.00
23341;BME280;12239;53.404;23.492;2023-10-31T00:58:22;76620.95;;;-147.78;100.00
23341;BME280;12239;53.404;23.492;2023-10-31T01:01:11;76617.66;;;-147.78;100.00
23341;BME280;12239;53.404;23.492;2023-10-31T01:04:01;76616.84;;;-147.78;100.00
23341;BME280;12239;53.404;23.492;2023-10-31T01:06:51;76612.75;;;-147.78;100.00
23341;BME280;12239;53.404;23.492;2023-10-31T01:09:41;76609.47;;;-147.78;100.00
23341;BME280;12239;53.404;23.492;2023-10-31T01:12:31;76603.73;;;-147.78;100.00
23341;BME280;12239;53.404;23.492;2023-10-31T01:15:21;76605.37;;;-147.78;100.00
23341;BME280;12239;53.404;23.492;2023-10-31T01:18:10;76605.37;;;-147.78;100.00
23341;BME280;12239;53.404;23.492;2023-10-31T01:21:00;76602.50;;;-147.78;100.00
23341;BME280;12239;53.404;23.492;2023-10-31T01:23:50;76599.63;;;-147.78;100.00
23341;BME280;12239;53.404;23.492;2023-10-31T01:26:40;76596.76;;;-147.78;100.00
23341;BME280;12239;53.404;23.492;2023-10-31T01:29:30;76595.94;;;-147.78;100.00
23341;BME280;12239;53.404;23.492;2023-10-31T01:32:20;76597.16;;;-147.78;100.00
23341;BME280;12239;53.404;23.492;2023-10-31T01:35:10;76597.58;;;-147.78;100.00
23341;BME280;12239;53.404;23.492;2023-10-31T01:38:00;76601.27;;;-147.78;100.00
23341;BME280;12239;53.404;23.492;2023-10-31T01:40:50;76605.77;;;-147.78;100.00
23341;BME280;12239;53.404;23.492;2023-10-31T01:43:40;76608.23;;;-147.78;100.00
23341;BME280;12239;53.404;23.492;2023-10-31T01:46:30;76608.64;;;-147.78;100.00
23341;BME280;12239;53.404;23.492;2023-10-31T01:49:19;76607.00;;;-147.78;100.00
23341;BME280;12239;53.404;23.492;2023-10-31T01:51:58;76604.55;;;-147.78;100.00
23341;BME280;12239;53.404;23.492;2023-10-31T01:54:48;76593.88;;;-147.78;100.00
23341;BME280;12239;53.404;23.492;2023-10-31T01:57:39;76588.14;;;-147.78;100.00
23341;BME280;12239;53.404;23.492;2023-10-31T02:00:28;76581.99;;;-147.78;100.00
23341;BME280;12239;53.404;23.492;2023-10-31T02:03:18;76572.98;;;-147.78;100.00
23341;BME280;12239;53.404;23.492;2023-10-31T02:06:08;76566.01;;;-147.78;100.00
23341;BME280;12239;53.404;23.492;2023-10-31T02:08:57;76560.27;;;-147.78;100.00
23341;BME280;12239;53.404;23.492;2023-10-31T02:11:47;76555.76;;;-147.78;100.00
23341;BME280;12239;53.404;23.492;2023-10-31T02:14:38;76551.23;;;-147.78;100.00
23341;BME280;12239;53.404;23.492;2023-10-31T02:17:28;76554.12;;;-147.78;100.00
23341;BME280;12239;53.404;23.492;2023-10-31T02:20:17;76552.06;;;-147.78;100.00
23341;BME280;12239;53.404;23.492;2023-10-31T02:23:07;76558.63;;;-147.78;100.00
23341;BME280;12239;53.404;23.492;2023-10-31T02:25:57;76563.14;;;-147.78;100.00
23341;BME280;12239;53.404;23.492;2023-10-31T02:28:47;76559.45;;;-147.78;100.00
23341;BME280;12239;53.404;23.492;2023-10-31T02:31:37;76561.09;;;-147.78;100.00
23341;BME280;12239;53.404;23.492;2023-10-31T02:34:26;76560.27;;;-147.78;100.00
23341;BME280;12239;53.404;23.492;2023-10-31T02:37:16;76559.04;;;-147.78;100.00
23341;BME280;12239;53.404;23.492;2023-10-31T02:39:49;76555.76;;;-147.78;100.00
23341;BME280;12239;53.404;23.492;2023-10-31T02:42:38;76556.16;;;-147.78;100.00
23341;BME280;12239;53.404;23.492;2023-10-31T02:45:28;76553.30;;;-147.78;100.00
23341;BME280;12239;53.404;23.492;2023-10-31T02:48:18;76546.73;;;-147.78;100.00
23341;BME280;12239;53.404;23.492;2023-10-31T02:51:08;76542.23;;;-147.78;100.00
23341;BME280;12239;53.404;23.492;2023-10-31T02:53:58;76541.00;;;-147.78;100.00
23341;BME280;12239;53.404;23.492;2023-10-31T02:56:48;76538.54;;;-147.78;100.00
23341;BME280;12239;53.404;23.492;2023-10-31T02:59:37;76535.25;;;-147.78;100.00
23341;BME280;12239;53.404;23.492;2023-10-31T03:02:10;76536.07;;;-147.78;100.00
23341;BME280;12239;53.404;23.492;2023-10-31T03:04:59;76536.48;;;-147.78;100.00
23341;BME280;12239;53.404;23.492;2023-10-31T03:07:50;76535.66;;;-147.78;100.00
23341;BME280;12239;53.404;23.492;2023-10-31T03:10:41;76531.55;;;-147.78;100.00
23341;BME280;12239;53.404;23.492;2023-10-31T03:13:31;76525.82;;;-147.78;100.00
23341;BME280;12239;53.404;23.492;2023-10-31T03:16:21;76521.73;;;-147.78;100.00
23341;BME280;12239;53.404;23.492;2023-10-31T03:19:10;76514.75;;;-147.78;100.00
23341;BME280;12239;53.404;23.492;2023-10-31T03:22:00;76509.42;;;-147.78;100.00
23341;BME280;12239;53.404;23.492;2023-10-31T03:24:50;76499.17;;;-147.78;100.00
23341;BME280;12239;53.404;23.492;2023-10-31T03:27:39;76486.47;;;-147.78;100.00
23341;BME280;12239;53.404;23.492;2023-10-31T03:30:29;76478.67;;;-147.78;100.00
23341;BME280;12239;53.404;23.492;2023-10-31T03:33:19;76471.70;;;-147.78;100.00
23341;BME280;12239;53.404;23.492;2023-10-31T03:36:09;76465.55;;;-147.78;100.00
23341;BME280;12239;53.404;23.492;2023-10-31T03:38:59;76456.54;;;-147.78;100.00
23341;BME280;12239;53.404;23.492;2023-10-31T03:41:49;76455.71;;;-147.78;100.00
23341;BME280;12239;53.404;23.492;2023-10-31T03:44:39;76443.83;;;-147.78;100.00
23341;BME280;12239;53.404;23.492;2023-10-31T03:47:11;76441.36;;;-147.78;100.00
23341;BME280;12239;53.404;23.492;2023-10-31T03:50:01;76431.11;;;-147.78;100.00
23341;BME280;12239;53.404;23.492;2023-10-31T03:52:51;76421.27;;;-147.78;100.00
23341;BME280;12239;53.404;23.492;2023-10-31T03:55:41;76414.30;;;-147.78;100.00
23341;BME280;12239;53.404;23.492;2023-10-31T03:58:31;76406.52;;;-147.78;100.00
23341;BME280;12239;53.404;23.492;2023-10-31T04:01:21;76400.77;;;-147.78;100.00
23341;BME280;12239;53.404;23.492;2023-10-31T04:04:11;76385.61;;;-147.78;100.00
23341;BME280;12239;53.404;23.492;2023-10-31T04:07:00;76377.82;;;-147.78;100.00
23341;BME280;12239;53.404;23.492;2023-10-31T04:09:50;76372.48;;;-147.78;100.00
23341;BME280;12239;53.404;23.492;2023-10-31T04:12:40;76363.88;;;-147.78;100.00
23341;BME280;12239;53.404;23.492;2023-10-31T04:15:30;76353.22;;;-147.78;100.00
23341;BME280;12239;53.404;23.492;2023-10-31T04:18:20;76344.20;;;-147.78;100.00
23341;BME280;12239;53.404;23.492;2023-10-31T04:21:09;76333.95;;;-147.78;100.00
23341;BME280;12239;53.404;23.492;2023-10-31T04:23:59;76320.83;;;-147.78;100.00
23341;BME280;12239;53.404;23.492;2023-10-31T04:26:50;76309.35;;;-147.78;100.00
23341;BME280;12239;53.404;23.492;2023-10-31T04:29:39;76299.91;;;-147.78;100.00
23341;BME280;12239;53.404;23.492;2023-10-31T04:32:09;76290.08;;;-147.78;100.00
23341;BME280;12239;53.404;23.492;2023-10-31T04:34:58;76282.29;;;-147.78;100.00
23341;BME280;12239;53.404;23.492;2023-10-31T04:37:48;76272.45;;;-147.78;100.00
23341;BME280;12239;53.404;23.492;2023-10-31T04:40:38;76262.61;;;-147.78;100.00
23341;BME280;12239;53.404;23.492;2023-10-31T04:43:28;76252.36;;;-147.78;100.00
23341;BME280;12239;53.404;23.492;2023-10-31T04:46:17;76245.40;;;-147.78;100.00
23341;BME280;12239;53.404;23.492;2023-10-31T04:49:07;76241.70;;;-147.78;100.00
23341;BME280;12239;53.404;23.492;2023-10-31T04:51:57;76243.75;;;-147.78;100.00
23341;BME280;12239;53.404;23.492;2023-10-31T04:54:49;76237.20;;;-147.78;100.00
23341;BME280;12239;53.404;23.492;2023-10-31T04:57:39;76231.87;;;-147.78;100.00
23341;BME280;12239;53.404;23.492;2023-10-31T05:00:29;76224.48;;;-147.78;100.00
23341;BME280;12239;53.404;23.492;2023-10-31T05:03:19;76223.67;;;-147.78;100.00
23341;BME280;12239;53.404;23.492;2023-10-31T05:06:08;76217.92;;;-147.78;100.00
23341;BME280;12239;53.404;23.492;2023-10-31T05:08:58;76215.47;;;-147.78;100.00
23341;BME280;12239;53.404;23.492;2023-10-31T05:11:48;76210.55;;;-147.78;100.00
23341;BME280;12239;53.404;23.492;2023-10-31T05:14:38;76209.73;;;-147.78;100.00
23341;BME280;12239;53.404;23.492;2023-10-31T05:17:29;76211.36;;;-147.78;100.00
23341;BME280;12239;53.404;23.492;2023-10-31T05:20:19;76206.86;;;-147.78;100.00
23341;BME280;12239;53.404;23.492;2023-10-31T05:23:11;76208.09;;;-147.78;100.00
23341;BME280;12239;53.404;23.492;2023-10-31T05:26:01;76209.73;;;-147.78;100.00
23341;BME280;12239;53.404;23.492;2023-10-31T05:28:54;76207.27;;;-147.78;100.00
23341;BME280;12239;53.404;23.492;2023-10-31T05:31:43;76201.11;;;-147.78;100.00
23341;BME280;12239;53.404;23.492;2023-10-31T05:34:33;76192.92;;;-147.78;100.00
23341;BME280;12239;53.404;23.492;2023-10-31T05:37:23;76183.48;;;-147.78;100.00
23341;BME280;12239;53.404;23.492;2023-10-31T05:40:13;76174.06;;;-147.78;100.00
23341;BME280;12239;53.404;23.492;2023-10-31T05:43:03;76163.81;;;-147.78;100.00
23341;BME280;12239;53.404;23.492;2023-10-31T05:45:53;76157.66;;;-147.78;100.00
23341;BME280;12239;53.404;23.492;2023-10-31T05:48:44;76138.39;;;-147.78;100.00
23341;BME280;12239;53.404;23.492;2023-10-31T05:51:34;76131.42;;;-147.78;100.00
23341;BME280;12239;53.404;23.492;2023-10-31T05:54:25;76128.14;;;-147.78;100.00
23341;BME280;12239;53.404;23.492;2023-10-31T05:57:15;76114.61;;;-147.78;100.00
23341;BME280;12239;53.404;23.492;2023-10-31T06:00:05;76104.37;;;-147.78;100.00
23341;BME280;12239;53.404;23.492;2023-10-31T06:02:55;76102.31;;;-147.78;100.00
23341;BME280;12239;53.404;23.492;2023-10-31T06:05:45;76098.63;;;-147.78;100.00
23341;BME280;12239;53.404;23.492;2023-10-31T06:08:33;76092.89;;;-147.78;100.00
23341;BME280;12239;53.404;23.492;2023-10-31T06:11:23;76102.32;;;-147.78;100.00
23341;BME280;12239;53.404;23.492;2023-10-31T06:14:13;76093.30;;;-147.78;100.00
23341;BME280;12239;53.404;23.492;2023-10-31T06:17:03;76072.80;;;-147.78;100.00
23341;BME280;12239;53.404;23.492;2023-10-31T06:19:52;76060.50;;;-147.78;100.00
23341;BME280;12239;53.404;23.492;2023-10-31T06:22:42;76046.57;;;-147.78;100.00
23341;BME280;12239;53.404;23.492;2023-10-31T06:25:22;76044.52;;;-147.78;100.00
23341;BME280;12239;53.404;23.492;2023-10-31T06:28:12;76030.17;;;-147.78;100.00
23341;BME280;12239;53.404;23.492;2023-10-31T06:31:01;76017.45;;;-147.78;100.00
23341;BME280;12239;53.404;23.492;2023-10-31T06:33:51;76003.52;;;-147.78;100.00
23341;BME280;12239;53.404;23.492;2023-10-31T06:36:41;75993.27;;;-147.78;100.00
23341;BME280;12239;53.404;23.492;2023-10-31T06:39:31;75992.05;;;-147.78;100.00
23341;BME280;12239;53.404;23.492;2023-10-31T06:42:21;75992.86;;;-147.78;100.00
23341;BME280;12239;53.404;23.492;2023-10-31T06:45:10;75975.64;;;-147.78;100.00
23341;BME280;12239;53.404;23.492;2023-10-31T06:48:00;75969.08;;;-147.78;100.00
23341;BME280;12239;53.404;23.492;2023-10-31T06:50:50;75959.66;;;-147.78;100.00
23341;BME280;12239;53.404;23.492;2023-10-31T06:53:39;75950.64;;;-147.78;100.00
23341;BME280;12239;53.404;23.492;2023-10-31T06:56:29;75955.14;;;-147.78;100.00
23341;BME280;12239;53.404;23.492;2023-10-31T06:59:02;75954.33;;;-147.78;100.00
23341;BME280;12239;53.404;23.492;2023-10-31T07:01:51;75951.05;;;-147.78;100.00
23341;BME280;12239;53.404;23.492;2023-10-31T07:04:25;75946.95;;;-147.78;100.00
23341;BME280;12239;53.404;23.492;2023-10-31T07:07:15;75944.08;;;-147.78;100.00
23341;BME280;12239;53.404;23.492;2023-10-31T07:10:05;75941.21;;;-147.78;100.00
23341;BME280;12239;53.404;23.492;2023-10-31T07:12:55;75934.64;;;-147.78;100.00
23341;BME280;12239;53.404;23.492;2023-10-31T07:15:26;75923.58;;;-147.78;100.00
23341;BME280;12239;53.404;23.492;2023-10-31T07:18:16;75909.65;;;-147.78;100.00
23341;BME280;12239;53.404;23.492;2023-10-31T07:21:07;75888.33;;;-147.78;100.00
23341;BME280;12239;53.404;23.492;2023-10-31T07:23:56;75871.11;;;-147.78;100.00
23341;BME280;12239;53.404;23.492;2023-10-31T07:26:46;75855.95;;;-147.78;100.00
23341;BME280;12239;53.404;23.492;2023-10-31T07:29:36;75848.97;;;-147.78;100.00
23341;BME280;12239;53.404;23.492;2023-10-31T07:32:28;75841.19;;;-147.78;100.00
23341;BME280;12239;53.404;23.492;2023-10-31T07:35:17;75832.98;;;-147.78;100.00
23341;BME280;12239;53.404;23.492;2023-10-31T07:38:08;75832.98;;;-147.78;100.00
23341;BME280;12239;53.404;23.492;2023-10-31T07:40:57;75830.93;;;-147.78;100.00
23341;BME280;12239;53.404;23.492;2023-10-31T07:43:27;75823.56;;;-147.78;100.00
23341;BME280;12239;53.404;23.492;2023-10-31T07:46:17;75817.41;;;-147.78;100.00
23341;BME280;12239;53.404;23.492;2023-10-31T07:48:50;75807.58;;;-147.78;100.00
23341;BME280;12239;53.404;23.492;2023-10-31T07:51:40;75792.80;;;-147.78;100.00
23341;BME280;12239;53.404;23.492;2023-10-31T07:54:30;75781.34;;;-147.78;100.00
23341;BME280;12239;53.404;23.492;2023-10-31T07:57:20;75777.65;;;-147.78;100.00
23341;BME280;12239;53.404;23.492;2023-10-31T08:00:12;75753.05;;;-147.78;100.00
23341;BME280;12239;53.404;23.492;2023-10-31T08:03:02;75743.20;;;-147.78;100.00
23341;BME280;12239;53.404;23.492;2023-10-31T08:05:52;75739.52;;;-147.78;100.00
23341;BME280;12239;53.404;23.492;2023-10-31T08:08:41;75732.96;;;-147.78;100.00
23341;BME280;12239;53.404;23.492;2023-10-31T08:11:31;75717.80;;;-147.78;100.00
23341;BME280;12239;53.404;23.492;2023-10-31T08:14:23;75710.01;;;-147.78;100.00
23341;BME280;12239;53.404;23.492;2023-10-31T08:17:12;75698.94;;;-147.78;100.00
23341;BME280;12239;53.404;23.492;2023-10-31T08:20:03;75695.66;;;-147.78;100.00
23341;BME280;12239;53.404;23.492;2023-10-31T08:22:52;75685.02;;;-147.78;100.00
23341;BME280;12239;53.404;23.492;2023-10-31T08:25:22;75686.23;;;-147.78;100.00
23341;BME280;12239;53.404;23.492;2023-10-31T08:28:12;75680.09;;;-147.78;100.00
23341;BME280;12239;53.404;23.492;2023-10-31T08:30:51;75672.30;;;-147.78;100.00
23341;BME280;12239;53.404;23.492;2023-10-31T08:33:41;75665.73;;;-147.78;100.00
23341;BME280;12239;53.404;23.492;2023-10-31T08:36:31;75663.28;;;-147.78;100.00
23341;BME280;12239;53.404;23.492;2023-10-31T08:39:03;75660.00;;;-147.78;100.00
23341;BME280;12239;53.404;23.492;2023-10-31T08:41:35;75655.08;;;-147.78;100.00
23341;BME280;12239;53.404;23.492;2023-10-31T08:44:11;75652.62;;;-147.78;100.00
23341;BME280;12239;53.404;23.492;2023-10-31T08:46:44;75646.89;;;-147.78;100.00
23341;BME280;12239;53.404;23.492;2023-10-31T08:49:33;75635.00;;;-147.78;100.00
23341;BME280;12239;53.404;23.492;2023-10-31T08:52:05;75631.71;;;-147.78;100.00
23341;BME280;12239;53.404;23.492;2023-10-31T08:54:55;75620.65;;;-147.78;100.00
23341;BME280;12239;53.404;23.492;2023-10-31T08:57:45;75608.35;;;-147.78;100.00
23341;BME280;12239;53.404;23.492;2023-10-31T09:00:35;75600.97;;;-147.78;100.00
23341;BME280;12239;53.404;23.492;2023-10-31T09:03:24;75596.87;;;-147.78;100.00
23341;BME280;12239;53.404;23.492;2023-10-31T09:05:54;75584.16;;;-147.78;100.00
23341;BME280;12239;53.404;23.492;2023-10-31T09:08:44;75575.96;;;-147.78;100.00
23341;BME280;12239;53.404;23.492;2023-10-31T09:11:33;75571.05;;;-147.78;100.00
23341;BME280;12239;53.404;23.492;2023-10-31T09:14:23;75571.46;;;-147.78;100.00
23341;BME280;12239;53.404;23.492;2023-10-31T09:17:13;75566.13;;;-147.78;100.00
23341;BME280;12239;53.404;23.492;2023-10-31T09:20:03;75554.24;;;-147.78;100.00
23341;BME280;12239;53.404;23.492;2023-10-31T09:22:53;75541.95;;;-147.78;100.00
23341;BME280;12239;53.404;23.492;2023-10-31T09:25:43;75535.39;;;-147.78;100.00
23341;BME280;12239;53.404;23.492;2023-10-31T09:28:33;75523.50;;;-147.78;100.00
23341;BME280;12239;53.404;23.492;2023-10-31T09:31:23;75522.27;;;-147.78;100.00
23341;BME280;12239;53.404;23.492;2023-10-31T09:34:13;75521.05;;;-147.78;100.00
23341;BME280;12239;53.404;23.492;2023-10-31T09:37:03;75503.41;;;-147.78;100.00
23341;BME280;12239;53.404;23.492;2023-10-31T09:39:52;75503.01;;;-147.78;100.00
23341;BME280;12239;53.404;23.492;2023-10-31T09:42:38;75487.84;;;-147.78;100.00
23341;BME280;12239;53.404;23.492;2023-10-31T09:45:28;75478.41;;;-147.78;100.00
23341;BME280;12239;53.404;23.492;2023-10-31T09:47:57;75465.71;;;-147.78;100.00
23341;BME280;12239;53.404;23.492;2023-10-31T09:50:50;75452.19;;;-147.78;100.00
23341;BME280;12239;53.404;23.492;2023-10-31T09:53:42;75438.23;;;-147.78;100.00
23341;BME280;12239;53.404;23.492;2023-10-31T09:56:33;75441.94;;;-147.78;100.00
23341;BME280;12239;53.404;23.492;2023-10-31T09:59:23;75445.21;;;-147.78;100.00
23341;BME280;12239;53.404;23.492;2023-10-31T10:01:53;75439.48;;;-147.78;100.00
23341;BME280;12239;53.404;23.492;2023-10-31T10:04:25;75432.50;;;-147.78;100.00
23341;BME280;12239;53.404;23.492;2023-10-31T10:07:16;75434.15;;;-147.78;100.00
23341;BME280;12239;53.404;23.492;2023-10-31T10:09:46;75420.20;;;-147.78;100.00
23341;BME280;12239;53.404;23.492;2023-10-31T10:12:16;75413.65;;;-147.78;100.00
23341;BME280;12239;53.404;23.492;2023-10-31T10:14:45;75404.64;;;-147.78;100.00
23341;BME280;12239;53.404;23.492;2023-10-31T10:17:20;75401.77;;;-147.78;100.00
23341;BME280;12239;53.404;23.492;2023-10-31T10:19:51;75396.02;;;-147.78;100.00
23341;BME280;12239;53.404;23.492;2023-10-31T10:22:34;75386.60;;;-147.78;100.00
23341;BME280;12239;53.404;23.492;2023-10-31T10:25:06;75383.33;;;-147.78;100.00
23341;BME280;12239;53.404;23.492;2023-10-31T10:27:35;75379.64;;;-147.78;100.00
23341;BME280;12239;53.404;23.492;2023-10-31T10:30:07;75371.84;;;-147.78;100.00
23341;BME280;12239;53.404;23.492;2023-10-31T10:32:37;75362.00;;;-147.78;100.00
23341;BME280;12239;53.404;23.492;2023-10-31T10:35:07;75351.77;;;-147.78;100.00
23341;BME280;12239;53.404;23.492;2023-10-31T10:37:38;75339.05;;;-147.78;100.00
23341;BME280;12239;53.404;23.492;2023-10-31T10:40:08;75332.90;;;-147.78;100.00
23341;BME280;12239;53.404;23.492;2023-10-31T10:42:42;75333.31;;;-147.78;100.00
23341;BME280;12239;53.404;23.492;2023-10-31T10:45:16;75316.52;;;-147.78;100.00
23341;BME280;12239;53.404;23.492;2023-10-31T10:47:49;75318.15;;;-147.78;100.00
23341;BME280;12239;53.404;23.492;2023-10-31T10:50:19;75316.92;;;-147.78;100.00
23341;BME280;12239;53.404;23.492;2023-10-31T10:52:54;75318.56;;;-147.78;100.00
23341;BME280;12239;53.404;23.492;2023-10-31T10:55:28;75322.25;;;-147.78;100.00
23341;BME280;12239;53.404;23.492;2023-10-31T10:58:21;75328.39;;;-147.78;100.00
23341;BME280;12239;53.404;23.492;2023-10-31T11:01:00;75331.67;;;-147.78;100.00
23341;BME280;12239;53.404;23.492;2023-10-31T11:03:39;75322.25;;;-147.78;100.00
23341;BME280;12239;53.404;23.492;2023-10-31T11:06:09;75316.10;;;-147.78;100.00
23341;BME280;12239;53.404;23.492;2023-10-31T11:08:59;75304.21;;;-147.78;100.00
23341;BME280;12239;53.404;23.492;2023-10-31T11:11:39;75300.53;;;-147.78;100.00
23341;BME280;12239;53.404;23.492;2023-10-31T11:14:30;75296.42;;;-147.78;100.00
23341;BME280;12239;53.404;23.492;2023-10-31T11:17:01;75294.38;;;-147.78;100.00
23341;BME280;12239;53.404;23.492;2023-10-31T11:19:33;75291.51;;;-147.78;100.00
23341;BME280;12239;53.404;23.492;2023-10-31T11:22:04;75291.10;;;-147.78;100.00
23341;BME280;12239;53.404;23.492;2023-10-31T11:24:55;75287.41;;;-147.78;100.00
23341;BME280;12239;53.404;23.492;2023-10-31T11:27:24;75278.39;;;-147.78;100.00
23341;BME280;12239;53.404;23.492;2023-10-31T11:29:56;75278.80;;;-147.78;100.00
23341;BME280;12239;53.404;23.492;2023-10-31T11:32:28;75270.20;;;-147.78;100.00
23341;BME280;12239;53.404;23.492;2023-10-31T11:34:57;75271.83;;;-147.78;100.00
23341;BME280;12239;53.404;23.492;2023-10-31T11:37:32;75267.32;;;-147.78;100.00
23341;BME280;12239;53.404;23.492;2023-10-31T11:40:16;75263.23;;;-147.78;100.00
23341;BME280;12239;53.404;23.492;2023-10-31T11:42:48;75259.13;;;-147.78;100.00
23341;BME280;12239;53.404;23.492;2023-10-31T11:45:29;75257.08;;;-147.78;100.00
23341;BME280;12239;53.404;23.492;2023-10-31T11:47:59;75258.30;;;-147.78;100.00
23341;BME280;12239;53.404;23.492;2023-10-31T11:50:32;75260.35;;;-147.78;100.00
23341;BME280;12239;53.404;23.492;2023-10-31T11:53:03;75260.35;;;-147.78;100.00
23341;BME280;12239;53.404;23.492;2023-10-31T11:55:34;75263.23;;;-147.78;100.00
23341;BME280;12239;53.404;23.492;2023-10-31T11:58:17;75265.68;;;-147.78;100.00
23341;BME280;12239;53.404;23.492;2023-10-31T12:01:08;75266.91;;;-147.78;100.00
23341;BME280;12239;53.404;23.492;2023-10-31T12:03:41;75262.41;;;-147.78;100.00
23341;BME280;12239;53.404;23.492;2023-10-31T12:06:11;75263.23;;;-147.78;100.00
23341;BME280;12239;53.404;23.492;2023-10-31T12:08:41;75252.57;;;-147.78;100.00
23341;BME280;12239;53.404;23.492;2023-10-31T12:11:31;75252.98;;;-147.78;100.00
23341;BME280;12239;53.404;23.492;2023-10-31T12:14:10;75247.66;;;-147.78;100.00
23341;BME280;12239;53.404;23.492;2023-10-31T12:16:39;75247.23;;;-147.78;100.00
23341;BME280;12239;53.404;23.492;2023-10-31T12:19:10;75241.50;;;-147.78;100.00
23341;BME280;12239;53.404;23.492;2023-10-31T12:21:41;75248.06;;;-147.78;100.00
23341;BME280;12239;53.404;23.492;2023-10-31T12:24:31;75238.63;;;-147.78;100.00
23341;BME280;12239;53.404;23.492;2023-10-31T12:27:10;75232.48;;;-147.78;100.00
23341;BME280;12239;53.404;23.492;2023-10-31T12:30:03;75234.95;;;-147.78;100.00
23341;BME280;12239;53.404;23.492;2023-10-31T12:32:54;75234.54;;;-147.78;100.00
23341;BME280;12239;53.404;23.492;2023-10-31T12:35:25;75232.08;;;-147.78;100.00
23341;BME280;12239;53.404;23.492;2023-10-31T12:37:55;75229.20;;;-147.78;100.00
23341;BME280;12239;53.404;23.492;2023-10-31T12:40:45;75229.20;;;-147.78;100.00
23341;BME280;12239;53.404;23.492;2023-10-31T12:43:18;75222.66;;;-147.78;100.00
23341;BME280;12239;53.404;23.492;2023-10-31T12:45:50;75209.95;;;-147.78;100.00
23341;BME280;12239;53.404;23.492;2023-10-31T12:48:26;75201.75;;;-147.78;100.00
23341;BME280;12239;53.404;23.492;2023-10-31T12:51:07;75200.52;;;-147.78;100.00
23341;BME280;12239;53.404;23.492;2023-10-31T12:53:57;75196.83;;;-147.78;100.00
23341;BME280;12239;53.404;23.492;2023-10-31T12:56:47;75187.40;;;-147.78;100.00
23341;BME280;12239;53.404;23.492;2023-10-31T12:59:37;75188.64;;;-147.78;100.00
23341;BME280;12239;53.404;23.492;2023-10-31T13:02:10;75184.54;;;-147.78;100.00
23341;BME280;12239;53.404;23.492;2023-10-31T13:05:02;75182.48;;;-147.78;100.00
23341;BME280;12239;53.404;23.492;2023-10-31T13:07:57;75181.25;;;-147.78;100.00
23341;BME280;12239;53.404;23.492;2023-10-31T13:10:49;75184.95;;;-147.78;100.00
23341;BME280;12239;53.404;23.492;2023-10-31T13:13:39;75177.97;;;-147.78;100.00
23341;BME280;12239;53.404;23.492;2023-10-31T13:16:28;75171.41;;;-147.78;100.00
23341;BME280;12239;53.404;23.492;2023-10-31T13:19:18;75166.91;;;-147.78;100.00
23341;BME280;12239;53.404;23.492;2023-10-31T13:22:09;75165.67;;;-147.78;100.00
23341;BME280;12239;53.404;23.492;2023-10-31T13:24:59;75158.70;;;-147.78;100.00
23341;BME280;12239;53.404;23.492;2023-10-31T13:27:29;75146.01;;;-147.78;100.00
23341;BME280;12239;53.404;23.492;2023-10-31T13:30:19;75133.30;;;-147.78;100.00
23341;BME280;12239;53.404;23.492;2023-10-31T13:33:09;75125.50;;;-147.78;100.00
23341;BME280;12239;53.404;23.492;2023-10-31T13:35:59;75130.42;;;-147.78;100.00
23341;BME280;12239;53.404;23.492;2023-10-31T13:38:49;75130.84;;;-147.78;100.00
23341;BME280;12239;53.404;23.492;2023-10-31T13:41:39;75136.58;;;-147.78;100.00
23341;BME280;12239;53.404;23.492;2023-10-31T13:44:28;75139.03;;;-147.78;100.00
23341;BME280;12239;53.404;23.492;2023-10-31T13:47:18;75136.58;;;-147.78;100.00
23341;BME280;12239;53.404;23.492;2023-10-31T13:50:08;75139.04;;;-147.78;100.00
23341;BME280;12239;53.404;23.492;2023-10-31T13:52:38;75141.50;;;-147.78;100.00
23341;BME280;12239;53.404;23.492;2023-10-31T13:55:24;75141.50;;;-147.78;100.00